createdAt,value
2023-03-30T00:01:57.825Z,9.17
2023-03-30T00:04:27.623Z,9.19
2023-03-30T00:06:55.051Z,9.19
2023-03-30T00:09:22.831Z,9.17
2023-03-30T00:11:50.425Z,9.16
2023-03-30T00:14:19.705Z,9.15
2023-03-30T00:16:46.879Z,9.12
2023-03-30T00:19:14.165Z,9.13
2023-03-30T00:21:41.477Z,9.15
2023-03-30T00:24:08.670Z,9.15
2023-03-30T00:26:36.059Z,9.15
2023-03-30T00:29:03.544Z,9.15
2023-03-30T00:31:31.273Z,9.18
2023-03-30T00:33:58.436Z,9.19
2023-03-30T00:36:26.144Z,9.20
2023-03-30T00:38:54.369Z,9.16
2023-03-30T00:41:23.063Z,9.14
2023-03-30T00:44:01.159Z,9.13
2023-03-30T00:46:31.540Z,9.10
2023-03-30T00:49:04.121Z,9.11
2023-03-30T00:51:33.121Z,9.13
2023-03-30T00:54:04.716Z,9.13
2023-03-30T00:56:32.261Z,9.14
2023-03-30T00:59:00.948Z,9.13
2023-03-30T01:01:29.397Z,9.13
2023-03-30T01:03:59.682Z,9.07
2023-03-30T01:06:30.222Z,9.08
2023-03-30T01:08:59.171Z,9.10
2023-03-30T01:11:29.421Z,9.10
2023-03-30T01:13:59.440Z,9.12
2023-03-30T01:16:27.370Z,9.13
2023-03-30T01:19:02.240Z,9.09
2023-03-30T01:21:48.982Z,9.08
2023-03-30T01:24:22.750Z,9.06
2023-03-30T01:26:49.900Z,9.01
2023-03-30T01:29:20.587Z,8.97
2023-03-30T01:32:02.211Z,8.93
2023-03-30T01:34:49.743Z,8.86
2023-03-30T01:37:42.550Z,8.79
2023-03-30T01:40:21.237Z,8.79
2023-03-30T01:42:48.478Z,8.86
2023-03-30T01:45:27.451Z,8.91
2023-03-30T01:47:54.672Z,8.95
2023-03-30T01:50:33.861Z,8.99
2023-03-30T01:53:06.386Z,8.99
2023-03-30T01:55:36.744Z,8.94
2023-03-30T01:58:14.428Z,8.87
2023-03-30T02:00:47.549Z,8.84
2023-03-30T02:03:17.646Z,8.83
2023-03-30T02:05:47.462Z,8.78
2023-03-30T02:08:18.732Z,8.80
2023-03-30T02:10:48.097Z,8.81
2023-03-30T02:13:16.606Z,8.77
2023-03-30T02:15:49.981Z,8.67
2023-03-30T02:18:20.252Z,8.62
2023-03-30T02:20:48.001Z,8.65
2023-03-30T02:23:18.555Z,8.67
2023-03-30T02:25:46.672Z,8.62
2023-03-30T02:28:14.195Z,8.57
2023-03-30T02:30:44.366Z,8.57
2023-03-30T02:33:19.324Z,8.58
2023-03-30T02:36:10.177Z,8.60
2023-03-30T02:38:44.510Z,8.58
2023-03-30T02:41:26.326Z,8.54
2023-03-30T02:44:03.035Z,8.45
2023-03-30T02:46:49.984Z,8.40
2023-03-30T02:49:23.789Z,8.42
2023-03-30T02:52:06.667Z,8.43
2023-03-30T02:54:47.435Z,8.42
2023-03-30T02:57:38.305Z,8.41
2023-03-30T03:00:29.848Z,8.43
2023-03-30T03:03:00.416Z,8.43
2023-03-30T03:05:32.556Z,8.48
2023-03-30T03:08:15.027Z,8.47
2023-03-30T03:10:51.878Z,8.46
2023-03-30T03:13:21.266Z,8.45
2023-03-30T03:15:49.937Z,8.45
2023-03-30T03:18:18.792Z,8.44
2023-03-30T03:20:46.706Z,8.40
2023-03-30T03:23:14.682Z,8.31
2023-03-30T03:25:48.439Z,8.22
2023-03-30T03:28:18.743Z,8.20
2023-03-30T03:30:49.523Z,8.20
2023-03-30T03:33:22.052Z,8.14
2023-03-30T03:36:04.890Z,8.14
2023-03-30T03:38:34.719Z,8.09
2023-03-30T03:41:02.736Z,8.05
2023-03-30T03:43:31.236Z,8.03
2023-03-30T03:45:58.761Z,7.99
2023-03-30T03:48:26.480Z,8.02
2023-03-30T03:50:56.722Z,8.04
2023-03-30T03:53:25.434Z,8.09
2023-03-30T03:55:56.084Z,8.14
2023-03-30T03:58:24.185Z,8.17
2023-03-30T04:00:51.526Z,8.21
2023-03-30T04:03:18.748Z,8.27
2023-03-30T04:05:46.714Z,8.30
2023-03-30T04:08:14.246Z,8.29
2023-03-30T04:10:42.012Z,8.32
2023-03-30T04:13:27.741Z,8.32
2023-03-30T04:16:15.586Z,8.27
2023-03-30T04:18:46.233Z,8.26
2023-03-30T04:21:32.100Z,8.24
2023-03-30T04:24:12.451Z,8.27
2023-03-30T04:27:16.983Z,8.33
2023-03-30T04:30:10.844Z,8.31
2023-03-30T04:32:41.386Z,8.32
2023-03-30T04:35:34.732Z,8.41
2023-03-30T04:38:22.599Z,8.49
2023-03-30T04:41:05.849Z,8.48
2023-03-30T04:44:09.932Z,8.42
2023-03-30T04:46:59.565Z,8.37
2023-03-30T04:49:45.834Z,8.32
2023-03-30T04:52:31.536Z,8.33
2023-03-30T04:55:17.471Z,8.42
2023-03-30T04:58:11.855Z,8.57
2023-03-30T05:00:42.106Z,8.63
2023-03-30T05:03:45.307Z,8.75
2023-03-30T05:06:44.772Z,8.80
2023-03-30T05:09:25.009Z,8.75
2023-03-30T05:12:21.658Z,8.72
2023-03-30T05:15:12.976Z,8.84
2023-03-30T05:18:03.782Z,8.90
2023-03-30T05:21:09.994Z,8.89
2023-03-30T05:24:15.782Z,8.88
2023-03-30T05:27:09.655Z,8.76
2023-03-30T05:29:51.980Z,8.71
2023-03-30T05:32:38.508Z,8.70
2023-03-30T05:35:21.617Z,8.69
2023-03-30T05:38:07.647Z,8.70
2023-03-30T05:40:51.806Z,8.71
2023-03-30T05:43:32.982Z,8.78
2023-03-30T05:46:27.989Z,8.89
2023-03-30T05:49:14.026Z,8.90
2023-03-30T05:51:49.506Z,8.85
2023-03-30T05:54:35.962Z,8.92
2023-03-30T05:57:26.470Z,8.99
2023-03-30T06:00:15.708Z,9.08
2023-03-30T06:02:55.426Z,9.15
2023-03-30T06:05:24.883Z,9.27
2023-03-30T06:07:52.512Z,9.43
2023-03-30T06:10:20.148Z,9.57
2023-03-30T06:12:48.311Z,9.60
2023-03-30T06:15:30.369Z,9.61
2023-03-30T06:18:05.090Z,9.56
2023-03-30T06:20:35.850Z,9.52
2023-03-30T06:23:03.676Z,9.52
2023-03-30T06:25:31.509Z,9.55
2023-03-30T06:27:58.794Z,9.66
2023-03-30T06:30:27.377Z,9.91
2023-03-30T06:32:58.405Z,10.19
2023-03-30T06:35:51.250Z,10.28
2023-03-30T06:38:23.086Z,10.31
2023-03-30T06:40:52.793Z,10.25
2023-03-30T06:43:23.948Z,10.18
2023-03-30T06:46:15.149Z,10.21
2023-03-30T06:48:47.942Z,10.31
2023-03-30T06:51:50.335Z,10.76
2023-03-30T06:54:20.398Z,10.99
2023-03-30T06:56:55.268Z,11.25
2023-03-30T06:59:23.564Z,11.53
2023-03-30T07:02:13.846Z,11.85
2023-03-30T07:04:52.088Z,11.90
2023-03-30T07:07:31.542Z,11.97
2023-03-30T07:09:58.908Z,12.38
2023-03-30T07:12:26.836Z,12.90
2023-03-30T07:14:54.689Z,13.10
2023-03-30T07:17:24.365Z,12.81
2023-03-30T07:19:53.081Z,12.46
2023-03-30T07:22:20.652Z,12.35
2023-03-30T07:24:47.990Z,12.14
2023-03-30T07:27:16.475Z,12.24
2023-03-30T07:29:43.910Z,12.61
2023-03-30T07:32:11.330Z,12.86
2023-03-30T07:34:38.987Z,12.85
2023-03-30T07:37:07.591Z,12.83
2023-03-30T07:39:35.356Z,12.82
2023-03-30T07:42:05.016Z,12.79
2023-03-30T07:44:32.595Z,12.48
2023-03-30T07:47:07.009Z,12.13
2023-03-30T07:49:36.572Z,11.82
2023-03-30T07:52:04.191Z,11.64
2023-03-30T07:54:58.283Z,11.28
2023-03-30T07:57:32.980Z,11.02
2023-03-30T08:00:01.132Z,10.89
2023-03-30T08:03:00.295Z,10.83
2023-03-30T08:05:29.305Z,10.85
2023-03-30T08:08:13.970Z,10.69
2023-03-30T08:10:41.354Z,10.52
2023-03-30T08:13:08.971Z,10.43
2023-03-30T08:15:36.573Z,10.49
2023-03-30T08:18:08.272Z,10.56
2023-03-30T08:20:39.024Z,10.52
2023-03-30T08:23:06.911Z,10.52
2023-03-30T08:25:34.578Z,10.54
2023-03-30T08:28:02.364Z,10.43
2023-03-30T08:30:29.753Z,10.26
2023-03-30T08:32:57.118Z,10.22
2023-03-30T08:35:24.561Z,10.32
2023-03-30T08:37:52.476Z,10.55
2023-03-30T08:40:19.956Z,10.73
2023-03-30T08:43:02.778Z,10.83
2023-03-30T08:45:40.405Z,10.99
2023-03-30T08:48:31.220Z,11.05
2023-03-30T08:51:00.271Z,11.03
2023-03-30T08:53:29.025Z,10.82
2023-03-30T08:56:18.239Z,10.71
2023-03-30T08:58:51.071Z,10.28
2023-03-30T09:01:18.682Z,9.93
2023-03-30T09:03:55.949Z,9.81
2023-03-30T09:06:42.341Z,9.75
2023-03-30T09:09:14.579Z,9.65
2023-03-30T09:11:42.195Z,9.54
2023-03-30T09:14:14.605Z,9.26
2023-03-30T09:16:51.041Z,9.06
2023-03-30T09:19:27.804Z,8.99
2023-03-30T09:21:55.884Z,8.81
2023-03-30T09:24:27.367Z,8.74
2023-03-30T09:26:59.052Z,8.66
2023-03-30T09:29:28.612Z,8.57
2023-03-30T09:32:16.578Z,8.49
2023-03-30T09:34:43.992Z,8.38
2023-03-30T09:37:18.752Z,8.34
2023-03-30T09:39:46.301Z,8.26
2023-03-30T09:42:34.213Z,8.03
2023-03-30T09:45:12.208Z,7.82
2023-03-30T09:47:40.949Z,7.57
2023-03-30T09:50:09.918Z,7.35
2023-03-30T09:52:40.558Z,7.21
2023-03-30T09:55:26.547Z,7.13
2023-03-30T09:57:54.781Z,7.21
2023-03-30T10:00:25.178Z,7.30
2023-03-30T10:02:59.572Z,7.41
2023-03-30T10:05:27.923Z,7.63
2023-03-30T10:07:56.975Z,7.64
2023-03-30T10:10:29.202Z,7.69
2023-03-30T10:13:02.355Z,7.78
2023-03-30T10:15:32.657Z,7.86
2023-03-30T10:18:16.964Z,7.95
2023-03-30T10:20:52.025Z,7.97
2023-03-30T10:23:22.698Z,8.01
2023-03-30T10:25:50.471Z,7.99
2023-03-30T10:28:21.690Z,7.91
2023-03-30T10:30:54.918Z,7.77
2023-03-30T10:33:23.021Z,7.59
2023-03-30T10:35:53.517Z,7.42
2023-03-30T10:38:21.219Z,7.34
2023-03-30T10:40:50.096Z,7.19
2023-03-30T10:43:20.018Z,7.02
2023-03-30T10:45:48.477Z,6.94
2023-03-30T10:48:34.782Z,6.87
2023-03-30T10:51:07.815Z,6.88
2023-03-30T10:54:00.073Z,6.96
2023-03-30T10:56:44.058Z,7.01
2023-03-30T10:59:14.339Z,7.15
2023-03-30T11:01:52.323Z,7.28
2023-03-30T11:04:24.274Z,7.21
2023-03-30T11:06:53.626Z,7.18
2023-03-30T11:09:32.748Z,7.18
2023-03-30T11:12:16.889Z,7.31
2023-03-30T11:14:44.173Z,7.39
2023-03-30T11:17:22.060Z,7.35
2023-03-30T11:19:51.890Z,7.40
2023-03-30T11:22:33.455Z,7.43
2023-03-30T11:25:03.374Z,7.42
2023-03-30T11:27:34.004Z,7.47
2023-03-30T11:30:33.738Z,7.50
2023-03-30T11:33:13.140Z,7.33
2023-03-30T11:35:43.958Z,7.23
2023-03-30T11:38:30.025Z,7.08
2023-03-30T11:41:05.506Z,6.98
2023-03-30T11:43:33.376Z,6.96
2023-03-30T11:46:08.874Z,6.96
2023-03-30T11:48:36.426Z,7.05
2023-03-30T11:51:12.995Z,7.12
2023-03-30T11:53:58.024Z,7.23
2023-03-30T11:56:41.513Z,7.21
2023-03-30T11:59:47.066Z,7.20
2023-03-30T12:02:36.713Z,7.34
2023-03-30T12:05:10.411Z,7.40
2023-03-30T12:07:53.390Z,7.42
2023-03-30T12:10:23.794Z,7.49
2023-03-30T12:12:54.041Z,7.46
2023-03-30T12:15:26.768Z,7.34
2023-03-30T12:18:00.664Z,7.32
2023-03-30T12:20:31.546Z,7.16
2023-03-30T12:23:02.882Z,7.02
2023-03-30T12:25:50.307Z,6.88
2023-03-30T12:28:19.463Z,6.64
2023-03-30T12:30:53.258Z,6.61
2023-03-30T12:33:28.449Z,6.54
2023-03-30T12:35:58.308Z,6.48
2023-03-30T12:38:38.577Z,6.41
2023-03-30T12:41:18.634Z,6.38
2023-03-30T12:43:55.627Z,6.43
2023-03-30T12:46:31.787Z,6.48
2023-03-30T12:49:05.991Z,6.31
2023-03-30T12:51:36.669Z,6.20
2023-03-30T12:54:04.201Z,6.21
2023-03-30T12:56:38.089Z,6.23
2023-03-30T12:59:24.147Z,6.22
2023-03-30T13:01:51.587Z,6.15
2023-03-30T13:04:23.722Z,6.16
2023-03-30T13:06:53.296Z,6.24
2023-03-30T13:09:22.108Z,6.37
2023-03-30T13:11:50.162Z,6.42
2023-03-30T13:14:26.691Z,6.46
2023-03-30T13:16:53.952Z,6.38
2023-03-30T13:19:33.697Z,6.34
2023-03-30T13:22:13.277Z,6.21
2023-03-30T13:24:54.921Z,6.21
2023-03-30T13:27:25.789Z,6.18
2023-03-30T13:29:56.525Z,6.18
2023-03-30T13:32:32.038Z,6.19
2023-03-30T13:35:08.975Z,6.16
2023-03-30T13:37:48.792Z,6.12
2023-03-30T13:40:48.797Z,6.05
2023-03-30T13:43:32.158Z,6.03
2023-03-30T13:46:16.136Z,6.02
2023-03-30T13:48:50.908Z,6.01
2023-03-30T13:51:20.902Z,6.04
2023-03-30T13:53:51.312Z,6.12
2023-03-30T13:56:19.578Z,6.21
2023-03-30T13:58:56.025Z,6.30
2023-03-30T14:01:24.018Z,6.33
2023-03-30T14:03:56.957Z,6.27
2023-03-30T14:06:26.776Z,6.17
2023-03-30T14:09:06.328Z,5.88
2023-03-30T14:11:39.300Z,5.66
2023-03-30T14:14:07.059Z,5.49
2023-03-30T14:16:37.076Z,5.41
2023-03-30T14:19:12.609Z,5.37
2023-03-30T14:21:44.021Z,5.35
2023-03-30T14:24:19.264Z,5.41
2023-03-30T14:26:47.844Z,5.51
2023-03-30T14:29:24.623Z,5.44
2023-03-30T14:32:08.338Z,5.33
2023-03-30T14:34:41.221Z,5.28
2023-03-30T14:37:11.580Z,5.21
2023-03-30T14:39:41.136Z,5.15
2023-03-30T14:42:16.812Z,5.09
2023-03-30T14:44:45.729Z,4.95
2023-03-30T14:47:14.378Z,4.83
2023-03-30T14:49:47.750Z,4.79
2023-03-30T14:52:17.929Z,4.87
2023-03-30T14:54:57.562Z,4.88
2023-03-30T14:57:30.687Z,4.81
2023-03-30T15:00:00.049Z,4.75
2023-03-30T15:02:29.224Z,4.76
2023-03-30T15:04:57.134Z,4.83
2023-03-30T15:07:29.548Z,4.82
2023-03-30T15:09:58.642Z,4.77
2023-03-30T15:12:28.800Z,4.71
2023-03-30T15:14:58.174Z,4.70
2023-03-30T15:17:26.868Z,4.75
2023-03-30T15:19:56.713Z,4.84
2023-03-30T15:22:24.140Z,4.82
2023-03-30T15:24:52.270Z,4.85
2023-03-30T15:27:19.628Z,4.78
2023-03-30T15:29:47.577Z,4.61
2023-03-30T15:32:17.229Z,4.55
2023-03-30T15:35:16.776Z,4.51
2023-03-30T15:38:00.741Z,4.44
2023-03-30T15:40:28.761Z,4.42
2023-03-30T15:43:14.928Z,4.41
2023-03-30T15:46:06.194Z,4.46
2023-03-30T15:48:46.292Z,4.50
2023-03-30T15:51:27.729Z,4.47
2023-03-30T15:53:55.830Z,4.45
2023-03-30T15:56:43.575Z,4.45
2023-03-30T15:59:19.591Z,4.46
2023-03-30T16:01:50.075Z,4.53
2023-03-30T16:04:18.844Z,4.52
2023-03-30T16:06:47.442Z,4.48
2023-03-30T16:09:16.265Z,4.45
2023-03-30T16:11:45.463Z,4.43
2023-03-30T16:14:14.437Z,4.48
2023-03-30T16:16:41.835Z,4.50
2023-03-30T16:19:13.095Z,4.52
2023-03-30T16:21:41.710Z,4.49
2023-03-30T16:24:10.855Z,4.48
2023-03-30T16:26:38.217Z,4.42
2023-03-30T16:29:06.810Z,4.32
2023-03-30T16:31:34.798Z,4.22
2023-03-30T16:34:02.423Z,4.19
2023-03-30T16:36:30.363Z,4.22
2023-03-30T16:38:57.793Z,4.19
2023-03-30T16:41:25.044Z,4.12
2023-03-30T16:43:52.368Z,4.01
2023-03-30T16:46:20.460Z,4.03
2023-03-30T16:48:48.181Z,4.07
2023-03-30T16:51:15.894Z,4.09
2023-03-30T16:53:43.389Z,4.08
2023-03-30T16:56:15.174Z,4.05
2023-03-30T16:58:42.658Z,4.04
2023-03-30T17:01:13.529Z,4.01
2023-03-30T17:03:40.947Z,4.03
2023-03-30T17:06:08.772Z,3.96
2023-03-30T17:08:36.415Z,3.93
2023-03-30T17:11:05.413Z,3.86
2023-03-30T17:13:32.877Z,3.84
2023-03-30T17:16:02.855Z,3.84
2023-03-30T17:18:30.717Z,3.84
2023-03-30T17:20:59.290Z,3.81
2023-03-30T17:23:27.849Z,3.69
2023-03-30T17:25:56.188Z,3.67
2023-03-30T17:28:27.710Z,3.60
2023-03-30T17:30:56.519Z,3.60
2023-03-30T17:33:24.135Z,3.64
2023-03-30T17:35:54.359Z,3.68
2023-03-30T17:38:21.987Z,3.60
2023-03-30T17:40:49.774Z,3.54
2023-03-30T17:43:17.627Z,3.54
2023-03-30T17:45:46.564Z,3.57
2023-03-30T17:48:16.429Z,3.53
2023-03-30T17:50:46.656Z,3.49
2023-03-30T17:53:17.422Z,3.43
2023-03-30T17:55:45.958Z,3.43
2023-03-30T17:58:18.964Z,3.44
2023-03-30T18:00:47.142Z,3.40
2023-03-30T18:03:15.935Z,3.41
2023-03-30T18:05:44.773Z,3.43
2023-03-30T18:08:17.489Z,3.51
2023-03-30T18:10:48.048Z,3.57
2023-03-30T18:13:16.644Z,3.47
2023-03-30T18:15:46.257Z,3.41
2023-03-30T18:18:13.937Z,3.38
2023-03-30T18:20:42.563Z,3.35
2023-03-30T18:23:10.775Z,3.44
2023-03-30T18:25:38.663Z,3.55
2023-03-30T18:28:11.010Z,3.55
2023-03-30T18:30:38.473Z,3.49
2023-03-30T18:33:06.675Z,3.39
2023-03-30T18:35:35.105Z,3.32
2023-03-30T18:38:04.586Z,3.31
2023-03-30T18:40:33.348Z,3.27
2023-03-30T18:43:01.071Z,3.21
2023-03-30T18:45:35.993Z,3.12
2023-03-30T18:48:04.300Z,3.06
2023-03-30T18:50:36.312Z,3.06
2023-03-30T18:53:04.727Z,3.09
2023-03-30T18:55:33.440Z,3.13
2023-03-30T18:58:02.991Z,3.14
2023-03-30T19:00:31.671Z,3.18
2023-03-30T19:02:59.351Z,3.20
2023-03-30T19:05:27.964Z,3.13
2023-03-30T19:07:55.959Z,3.08
2023-03-30T19:10:28.426Z,3.02
2023-03-30T19:12:56.124Z,3.03
2023-03-30T19:15:33.716Z,3.06
2023-03-30T19:18:02.264Z,3.05
2023-03-30T19:20:31.902Z,3.06
2023-03-30T19:22:59.320Z,3.11
2023-03-30T19:25:27.923Z,3.11
2023-03-30T19:28:03.274Z,3.15
2023-03-30T19:30:34.377Z,3.15
2023-03-30T19:33:06.018Z,3.15
2023-03-30T19:35:33.278Z,3.19
2023-03-30T19:38:01.075Z,3.26
2023-03-30T19:40:28.845Z,3.28
2023-03-30T19:42:56.120Z,3.22
2023-03-30T19:45:24.026Z,3.16
2023-03-30T19:47:51.643Z,3.13
2023-03-30T19:50:19.811Z,3.12
2023-03-30T19:52:50.124Z,3.15
2023-03-30T19:55:20.985Z,3.15
2023-03-30T19:57:48.432Z,3.08
2023-03-30T20:00:17.384Z,3.04
2023-03-30T20:02:49.965Z,3.05
2023-03-30T20:05:18.546Z,3.04
2023-03-30T20:07:46.500Z,3.10
2023-03-30T20:10:24.990Z,3.09
2023-03-30T20:12:52.967Z,3.09
2023-03-30T20:15:21.290Z,3.04
2023-03-30T20:17:48.725Z,2.94
2023-03-30T20:20:23.085Z,2.90
2023-03-30T20:22:53.621Z,2.88
2023-03-30T20:25:24.931Z,2.88
2023-03-30T20:27:53.601Z,2.87
2023-03-30T20:30:21.643Z,2.84
2023-03-30T20:33:00.052Z,2.88
2023-03-30T20:35:32.174Z,2.88
2023-03-30T20:37:59.510Z,2.93
2023-03-30T20:40:27.357Z,2.97
2023-03-30T20:43:03.447Z,2.95
2023-03-30T20:45:31.752Z,2.90
2023-03-30T20:48:01.607Z,2.88
2023-03-30T20:50:29.357Z,2.88
2023-03-30T20:52:58.897Z,2.86
2023-03-30T20:55:26.493Z,2.82
2023-03-30T20:57:53.781Z,2.77
2023-03-30T21:00:21.072Z,2.72
2023-03-30T21:02:48.403Z,2.69
2023-03-30T21:05:15.642Z,2.69
2023-03-30T21:07:47.202Z,2.75
2023-03-30T21:10:16.371Z,2.71
2023-03-30T21:12:43.861Z,2.75
2023-03-30T21:15:11.601Z,2.79
2023-03-30T21:17:39.074Z,2.78
2023-03-30T21:20:09.363Z,2.79
2023-03-30T21:22:55.313Z,2.76
2023-03-30T21:25:22.978Z,2.79
2023-03-30T21:27:50.560Z,2.78
2023-03-30T21:30:18.028Z,2.78
2023-03-30T21:32:45.462Z,2.73
2023-03-30T21:35:14.194Z,2.68
2023-03-30T21:37:41.572Z,2.62
2023-03-30T21:40:09.498Z,2.63
2023-03-30T21:42:36.700Z,2.66
2023-03-30T21:45:05.073Z,2.75
2023-03-30T21:47:32.364Z,2.81
2023-03-30T21:49:59.453Z,2.86
2023-03-30T21:52:27.290Z,2.88
2023-03-30T21:54:54.711Z,2.81
2023-03-30T21:57:22.021Z,2.75
2023-03-30T21:59:49.272Z,2.73
2023-03-30T22:02:16.858Z,2.68
2023-03-30T22:04:44.906Z,2.68
2023-03-30T22:07:12.040Z,2.71
2023-03-30T22:09:39.405Z,2.74
2023-03-30T22:12:07.006Z,2.77
2023-03-30T22:14:34.664Z,2.83
2023-03-30T22:17:02.003Z,2.88
2023-03-30T22:19:32.023Z,2.95
2023-03-30T22:22:02.746Z,3.03
2023-03-30T22:24:30.870Z,3.12
2023-03-30T22:26:58.225Z,3.12
2023-03-30T22:29:25.405Z,3.15
2023-03-30T22:31:55.961Z,3.10
2023-03-30T22:34:23.325Z,2.98
2023-03-30T22:36:50.622Z,2.97
2023-03-30T22:39:18.381Z,2.93
2023-03-30T22:41:46.471Z,2.91
2023-03-30T22:44:13.910Z,2.90
2023-03-30T22:46:41.234Z,2.92
2023-03-30T22:49:10.164Z,2.86
2023-03-30T22:51:38.373Z,2.87
2023-03-30T22:54:05.858Z,2.91
2023-03-30T22:56:33.288Z,2.93
2023-03-30T22:59:01.484Z,2.90
2023-03-30T23:01:32.571Z,2.88
2023-03-30T23:04:00.536Z,2.85
2023-03-30T23:06:27.766Z,2.84
2023-03-30T23:08:55.296Z,2.84
2023-03-30T23:11:22.807Z,2.83
2023-03-30T23:13:50.062Z,2.82
2023-03-30T23:16:17.748Z,2.86
2023-03-30T23:18:45.320Z,2.86
2023-03-30T23:21:14.190Z,2.80
2023-03-30T23:23:41.634Z,2.70
2023-03-30T23:26:10.249Z,2.62
2023-03-30T23:28:41.957Z,2.58
2023-03-30T23:31:13.706Z,2.56
2023-03-30T23:33:41.907Z,2.49
2023-03-30T23:36:10.433Z,2.46
2023-03-30T23:38:38.412Z,2.43
2023-03-30T23:41:06.577Z,2.46
2023-03-30T23:43:34.127Z,2.54
2023-03-30T23:46:01.562Z,2.58
2023-03-30T23:48:29.091Z,2.55
2023-03-30T23:50:57.014Z,2.48
2023-03-30T23:53:26.596Z,2.40
2023-03-30T23:55:54.391Z,2.32
2023-03-30T23:58:22.302Z,2.26
